Pagina principală
METAR-TAF:

METAR-TAF

Aeroporturi :

Hugoton, Kansas, Statele Unite ale Americii

Latitudine: 37-09-47N, longitudine: 101-22-14W, elevație: 955 m

Observații meteo curente

Raportul a fost făcut în urmă cu 1 oră și 20 de minute, la 12:55 UTC
Vânt 20 kt de la Nord cu rafale de până la 27 kt
Temperatură 6°C
Umiditate 70%
Presiune 1020 hPa
Vizibilitate: 16.1 km
Nori fragmentați la o înălțime de 2000 picior

METAR: KHQG 181255Z AUTO 01020G27KT 10SM BKN020 06/01 A3012 RMK AO2 T00580012 PWINO

Ora: 09:15 (14:15 UTC)


TAF: lipsă

Observații și prognoze meteo pentru peste 4.000 de aeroporturi (rapoarte METAR și TAF).

Stațiile disponibile sunt reprezentate pe hartă prin puncte galbene și roșii.

Țineți indicatorul mouse-ului pe punctul dorit pentru a vedea denumirea stației.

Apoi, faceți clic pentru a vedea observațiile și prognozele meteorologice.

Pentru a schimba harta: Pentru mărire, faceți clic pe butoanele verzi cu cruce neagră; pentru micșorare, pe butonul verde cu o liniuță; pentru hărți învecinate, pe săgețile verzi.


METAR-TAF: